Tequesta, Florida
Current Conditions -  °F | °C
As of 3:47 PM on Thursday 23 Oct 2014 (Local Time) from KSUA Reporting Station
Broken Clouds Broken Clouds  
Wind Chill: 77°   Ceiling: 5000
Heat Index: 79°   Visibility: 7mi
Dew Point: 63°   Wind: 10mph
Humidity: 61%   Direction: 50°NE
Pressure: 29.93"   Gusts: NA
Location:  26.9832°N, 80.1°W
Report Text: KSUA 231947Z 05009KT 7SM SCT040 BKN050 25/17 A2993
Loading
Personal Weather Stations






























Interactive Weather Map
Tropical Storm Tracking
New forecast layout! Learn more

10-Day Weather Forecast

Advertisements
Track Severe Weather on mobile